MET993 - Jakarta to Hong Kong

Airbus A330-243
787MT
4 hrs 15 mins
1762 nm
Scheduled - SU | W | F | SA

Bid/PiRep Status

Bid was submitted on Jan 01 2017.

PiRep # 74567: Approved by Sean Doyle on January 2nd, 2017 20:14 UTC

Departure

Departing from
Jakarta (CGK)
Departure gate
Ramp
Scheduled Departure
GMT 1215
Local 1915
METAR WIII 280200Z 27006KT 7000 FEW022 29/25 Q1013 NOSIG
TAF TAF WIII 272300Z 2800/2906 VRB05KT 5000 VCTS FEW020CB BKN020 TEMPO 2800/2803 -TSRA FEW018CB BKN020 BECMG 2803/2805 33008KT 8000 NSW SCT020 BECMG 2812/2814 VRB03KT 5000 HZ
  • No charts available

Arrival

Arriving at
Hong Kong (HKG)
Arrival gate
Terminal 1
Scheduled Arrival
GMT 1630
Local 0030
METAR VHHH 280200Z 08016KT 9999 FEW025 22/13 Q1020 NOSIG
TAF TAF VHHH 272300Z 2800/2906 10010KT 9999 FEW025 SCT035 TX25/2806Z TX26/2906Z TN20/2823Z TEMPO 2800/2806 09015G25KT

Route Map

Planning Resources

DKI P648 OSUKA M772 DULOP M771 DUMOL
AMBO1B AMBOY P648 OSUKA M772 DULOP Q1 CARSO V551 BETTY BETY2B
JAKARTA2 DEDNY B592 OSUKA M772 DUMOL DUMOL1A
WIII DKI ATOSO OSUKA ANIPU VSB TAMIB DARMU ASISU VAVUM DABGI DUM OL CH VHHH
AMBO1B AMBOY P648 OSUKA M772 DULOP Q1 CARSO
Route:
OFP Layout:
Units:
Detailed Navlog:
ETOPS Planning:
Plan Stepclimbs:
Runway Analysis:
Include NOTAMS:
FIR NOTAMS:
Flight Maps:

Return Flights

MET992
Airbus A330-243
0700 GMT

Popularity

Hub Current Bids PiReps this month Total PiReps
KMCI 0 1 3
KLAX 0 0 4
KBOS 0 0 0